sensor_id;sensor_type;location;lat;lon;timestamp;P1;durP1;ratioP1;P2;durP2;ratioP2
19929;SDS011;10127;47.780;9.606;2023-05-29T00:00:44;9.75;;;5.20;;
19929;SDS011;10127;47.780;9.606;2023-05-29T00:03:09;13.90;;;5.43;;
19929;SDS011;10127;47.780;9.606;2023-05-29T00:05:35;11.15;;;4.93;;
19929;SDS011;10127;47.780;9.606;2023-05-29T00:08:01;10.43;;;5.07;;
19929;SDS011;10127;47.780;9.606;2023-05-29T00:10:26;11.48;;;5.13;;
19929;SDS011;10127;47.780;9.606;2023-05-29T00:12:52;10.45;;;5.10;;
19929;SDS011;10127;47.780;9.606;2023-05-29T00:15:18;7.82;;;5.05;;
19929;SDS011;10127;47.780;9.606;2023-05-29T00:17:43;10.25;;;5.20;;
19929;SDS011;10127;47.780;9.606;2023-05-29T00:20:09;10.68;;;5.25;;
19929;SDS011;10127;47.780;9.606;2023-05-29T00:22:36;9.43;;;5.45;;
19929;SDS011;10127;47.780;9.606;2023-05-29T00:25:06;12.25;;;5.68;;
19929;SDS011;10127;47.780;9.606;2023-05-29T00:27:33;9.95;;;5.40;;
19929;SDS011;10127;47.780;9.606;2023-05-29T00:29:59;10.32;;;5.32;;
19929;SDS011;10127;47.780;9.606;2023-05-29T00:32:26;12.35;;;5.78;;
19929;SDS011;10127;47.780;9.606;2023-05-29T00:34:55;11.55;;;6.43;;
19929;SDS011;10127;47.780;9.606;2023-05-29T00:37:21;13.40;;;6.70;;
19929;SDS011;10127;47.780;9.606;2023-05-29T00:39:47;15.45;;;6.65;;
19929;SDS011;10127;47.780;9.606;2023-05-29T00:42:13;12.38;;;6.00;;
19929;SDS011;10127;47.780;9.606;2023-05-29T00:44:39;10.38;;;5.53;;
19929;SDS011;10127;47.780;9.606;2023-05-29T00:47:05;13.60;;;5.40;;
19929;SDS011;10127;47.780;9.606;2023-05-29T00:49:31;14.35;;;5.93;;
19929;SDS011;10127;47.780;9.606;2023-05-29T00:51:58;13.50;;;5.85;;
19929;SDS011;10127;47.780;9.606;2023-05-29T00:54:28;9.43;;;5.60;;
19929;SDS011;10127;47.780;9.606;2023-05-29T00:56:57;10.40;;;5.70;;
19929;SDS011;10127;47.780;9.606;2023-05-29T00:59:26;17.17;;;6.07;;
19929;SDS011;10127;47.780;9.606;2023-05-29T01:01:54;11.68;;;5.45;;
19929;SDS011;10127;47.780;9.606;2023-05-29T01:04:21;14.80;;;5.72;;
19929;SDS011;10127;47.780;9.606;2023-05-29T01:06:48;12.20;;;5.88;;
19929;SDS011;10127;47.780;9.606;2023-05-29T01:09:14;7.03;;;4.63;;
19929;SDS011;10127;47.780;9.606;2023-05-29T01:28:27;10.25;;;5.40;;
19929;SDS011;10127;47.780;9.606;2023-05-29T01:31:05;11.02;;;5.28;;
19929;SDS011;10127;47.780;9.606;2023-05-29T01:33:32;9.63;;;6.18;;
19929;SDS011;10127;47.780;9.606;2023-05-29T01:35:58;11.00;;;5.50;;
19929;SDS011;10127;47.780;9.606;2023-05-29T01:38:24;11.25;;;5.53;;
19929;SDS011;10127;47.780;9.606;2023-05-29T01:40:49;10.30;;;4.90;;
19929;SDS011;10127;47.780;9.606;2023-05-29T01:43:16;8.65;;;5.28;;
19929;SDS011;10127;47.780;9.606;2023-05-29T01:45:41;10.70;;;5.25;;
19929;SDS011;10127;47.780;9.606;2023-05-29T01:48:08;11.50;;;5.78;;
19929;SDS011;10127;47.780;9.606;2023-05-29T01:50:33;11.65;;;5.57;;
19929;SDS011;10127;47.780;9.606;2023-05-29T01:53:00;8.02;;;5.10;;
19929;SDS011;10127;47.780;9.606;2023-05-29T01:55:25;13.98;;;5.80;;
19929;SDS011;10127;47.780;9.606;2023-05-29T01:57:51;9.07;;;5.47;;
19929;SDS011;10127;47.780;9.606;2023-05-29T02:00:17;12.20;;;5.22;;
19929;SDS011;10127;47.780;9.606;2023-05-29T02:02:44;13.32;;;5.70;;
19929;SDS011;10127;47.780;9.606;2023-05-29T02:05:09;11.48;;;5.47;;
19929;SDS011;10127;47.780;9.606;2023-05-29T02:07:35;10.73;;;5.35;;
19929;SDS011;10127;47.780;9.606;2023-05-29T02:10:04;11.88;;;5.30;;
19929;SDS011;10127;47.780;9.606;2023-05-29T02:12:30;11.50;;;5.90;;
19929;SDS011;10127;47.780;9.606;2023-05-29T02:14:56;9.25;;;5.47;;
19929;SDS011;10127;47.780;9.606;2023-05-29T02:17:21;9.75;;;5.00;;
19929;SDS011;10127;47.780;9.606;2023-05-29T02:19:47;9.80;;;5.30;;
19929;SDS011;10127;47.780;9.606;2023-05-29T02:22:13;9.98;;;5.53;;
19929;SDS011;10127;47.780;9.606;2023-05-29T02:24:38;11.55;;;6.30;;
19929;SDS011;10127;47.780;9.606;2023-05-29T02:27:04;10.85;;;6.03;;
19929;SDS011;10127;47.780;9.606;2023-05-29T02:29:30;9.50;;;4.95;;
19929;SDS011;10127;47.780;9.606;2023-05-29T02:31:55;9.40;;;5.10;;
19929;SDS011;10127;47.780;9.606;2023-05-29T02:34:21;11.38;;;5.47;;
19929;SDS011;10127;47.780;9.606;2023-05-29T02:36:50;11.05;;;5.40;;
19929;SDS011;10127;47.780;9.606;2023-05-29T02:39:19;11.90;;;5.95;;
19929;SDS011;10127;47.780;9.606;2023-05-29T02:41:45;12.88;;;6.00;;
19929;SDS011;10127;47.780;9.606;2023-05-29T02:44:11;11.48;;;5.80;;
19929;SDS011;10127;47.780;9.606;2023-05-29T02:46:37;11.23;;;5.75;;
19929;SDS011;10127;47.780;9.606;2023-05-29T02:49:02;12.20;;;6.15;;
19929;SDS011;10127;47.780;9.606;2023-05-29T03:12:06;12.48;;;6.75;;
19929;SDS011;10127;47.780;9.606;2023-05-29T03:14:32;16.02;;;6.65;;
19929;SDS011;10127;47.780;9.606;2023-05-29T03:17:05;10.73;;;5.80;;
19929;SDS011;10127;47.780;9.606;2023-05-29T03:19:34;12.15;;;6.10;;
19929;SDS011;10127;47.780;9.606;2023-05-29T03:22:00;15.48;;;6.50;;
19929;SDS011;10127;47.780;9.606;2023-05-29T03:24:26;11.77;;;6.45;;
19929;SDS011;10127;47.780;9.606;2023-05-29T03:26:52;14.73;;;6.30;;
19929;SDS011;10127;47.780;9.606;2023-05-29T03:29:18;10.27;;;5.68;;
19929;SDS011;10127;47.780;9.606;2023-05-29T03:31:43;10.65;;;6.28;;
19929;SDS011;10127;47.780;9.606;2023-05-29T03:34:09;12.32;;;6.55;;
19929;SDS011;10127;47.780;9.606;2023-05-29T03:36:35;11.75;;;5.93;;
19929;SDS011;10127;47.780;9.606;2023-05-29T03:39:03;12.40;;;6.30;;
19929;SDS011;10127;47.780;9.606;2023-05-29T03:41:29;10.85;;;5.90;;
19929;SDS011;10127;47.780;9.606;2023-05-29T03:43:54;10.05;;;5.65;;
19929;SDS011;10127;47.780;9.606;2023-05-29T03:46:20;14.82;;;6.93;;
19929;SDS011;10127;47.780;9.606;2023-05-29T03:48:46;12.35;;;6.97;;
19929;SDS011;10127;47.780;9.606;2023-05-29T03:51:11;11.65;;;6.10;;
19929;SDS011;10127;47.780;9.606;2023-05-29T03:53:37;14.65;;;6.53;;
19929;SDS011;10127;47.780;9.606;2023-05-29T03:56:02;13.07;;;6.50;;
19929;SDS011;10127;47.780;9.606;2023-05-29T03:58:28;13.15;;;6.35;;
19929;SDS011;10127;47.780;9.606;2023-05-29T04:00:54;16.38;;;6.68;;
19929;SDS011;10127;47.780;9.606;2023-05-29T04:03:19;13.02;;;6.65;;
19929;SDS011;10127;47.780;9.606;2023-05-29T04:05:45;16.73;;;6.38;;
19929;SDS011;10127;47.780;9.606;2023-05-29T04:08:11;16.27;;;6.55;;
19929;SDS011;10127;47.780;9.606;2023-05-29T04:10:38;14.40;;;6.63;;
19929;SDS011;10127;47.780;9.606;2023-05-29T04:13:04;10.77;;;6.55;;
19929;SDS011;10127;47.780;9.606;2023-05-29T04:15:30;11.70;;;6.15;;
19929;SDS011;10127;47.780;9.606;2023-05-29T04:17:58;13.40;;;6.35;;
19929;SDS011;10127;47.780;9.606;2023-05-29T04:20:24;12.20;;;6.03;;
19929;SDS011;10127;47.780;9.606;2023-05-29T04:22:50;10.85;;;5.60;;
19929;SDS011;10127;47.780;9.606;2023-05-29T04:25:16;11.18;;;6.45;;
19929;SDS011;10127;47.780;9.606;2023-05-29T04:27:42;11.95;;;6.07;;
19929;SDS011;10127;47.780;9.606;2023-05-29T04:30:14;13.23;;;6.50;;
19929;SDS011;10127;47.780;9.606;2023-05-29T04:32:40;12.55;;;6.03;;
19929;SDS011;10127;47.780;9.606;2023-05-29T04:35:06;13.60;;;6.75;;
19929;SDS011;10127;47.780;9.606;2023-05-29T04:37:32;13.95;;;6.47;;
19929;SDS011;10127;47.780;9.606;2023-05-29T04:40:05;13.27;;;6.28;;
19929;SDS011;10127;47.780;9.606;2023-05-29T04:42:34;12.38;;;6.30;;
19929;SDS011;10127;47.780;9.606;2023-05-29T04:45:00;14.43;;;6.38;;
19929;SDS011;10127;47.780;9.606;2023-05-29T04:47:27;13.20;;;6.72;;
19929;SDS011;10127;47.780;9.606;2023-05-29T04:49:53;13.57;;;6.57;;
19929;SDS011;10127;47.780;9.606;2023-05-29T04:52:19;11.40;;;6.68;;
19929;SDS011;10127;47.780;9.606;2023-05-29T04:54:46;11.00;;;6.68;;
19929;SDS011;10127;47.780;9.606;2023-05-29T04:57:12;13.05;;;6.38;;
19929;SDS011;10127;47.780;9.606;2023-05-29T04:59:37;15.73;;;6.18;;
19929;SDS011;10127;47.780;9.606;2023-05-29T05:02:03;16.15;;;5.80;;
19929;SDS011;10127;47.780;9.606;2023-05-29T05:04:29;12.80;;;6.60;;
19929;SDS011;10127;47.780;9.606;2023-05-29T05:06:55;11.52;;;6.30;;
19929;SDS011;10127;47.780;9.606;2023-05-29T05:09:20;11.55;;;6.10;;
19929;SDS011;10127;47.780;9.606;2023-05-29T05:11:46;16.42;;;6.72;;
19929;SDS011;10127;47.780;9.606;2023-05-29T05:14:11;10.90;;;5.95;;
19929;SDS011;10127;47.780;9.606;2023-05-29T05:16:37;12.30;;;6.53;;
19929;SDS011;10127;47.780;9.606;2023-05-29T05:19:02;11.48;;;6.55;;
19929;SDS011;10127;47.780;9.606;2023-05-29T05:21:28;16.20;;;6.47;;
19929;SDS011;10127;47.780;9.606;2023-05-29T05:23:56;13.70;;;6.50;;
19929;SDS011;10127;47.780;9.606;2023-05-29T05:26:22;15.65;;;6.85;;
19929;SDS011;10127;47.780;9.606;2023-05-29T05:28:47;13.32;;;6.30;;
19929;SDS011;10127;47.780;9.606;2023-05-29T05:31:13;13.82;;;6.40;;
19929;SDS011;10127;47.780;9.606;2023-05-29T05:33:39;11.40;;;6.40;;
19929;SDS011;10127;47.780;9.606;2023-05-29T05:36:04;11.95;;;6.00;;
19929;SDS011;10127;47.780;9.606;2023-05-29T05:38:31;9.13;;;5.68;;
19929;SDS011;10127;47.780;9.606;2023-05-29T05:40:57;13.10;;;6.40;;
19929;SDS011;10127;47.780;9.606;2023-05-29T05:43:22;11.30;;;6.18;;
19929;SDS011;10127;47.780;9.606;2023-05-29T05:45:48;12.40;;;5.85;;
19929;SDS011;10127;47.780;9.606;2023-05-29T05:48:14;14.70;;;6.38;;
19929;SDS011;10127;47.780;9.606;2023-05-29T05:50:39;12.27;;;5.68;;
19929;SDS011;10127;47.780;9.606;2023-05-29T05:53:05;11.35;;;6.07;;
19929;SDS011;10127;47.780;9.606;2023-05-29T05:55:31;10.38;;;5.53;;
19929;SDS011;10127;47.780;9.606;2023-05-29T05:57:56;12.32;;;6.07;;
19929;SDS011;10127;47.780;9.606;2023-05-29T06:00:22;12.38;;;5.85;;
19929;SDS011;10127;47.780;9.606;2023-05-29T06:02:49;11.23;;;6.05;;
19929;SDS011;10127;47.780;9.606;2023-05-29T06:05:14;11.60;;;5.60;;
19929;SDS011;10127;47.780;9.606;2023-05-29T06:07:40;10.98;;;5.80;;
19929;SDS011;10127;47.780;9.606;2023-05-29T06:10:06;12.05;;;6.13;;
19929;SDS011;10127;47.780;9.606;2023-05-29T06:12:32;11.02;;;5.63;;
19929;SDS011;10127;47.780;9.606;2023-05-29T06:14:59;9.10;;;5.50;;
19929;SDS011;10127;47.780;9.606;2023-05-29T06:17:25;9.20;;;5.95;;
19929;SDS011;10127;47.780;9.606;2023-05-29T06:19:50;9.70;;;5.75;;
19929;SDS011;10127;47.780;9.606;2023-05-29T06:22:16;12.10;;;5.57;;
19929;SDS011;10127;47.780;9.606;2023-05-29T06:24:42;12.68;;;5.70;;
19929;SDS011;10127;47.780;9.606;2023-05-29T06:27:08;9.30;;;5.60;;
19929;SDS011;10127;47.780;9.606;2023-05-29T06:29:33;14.07;;;5.40;;
19929;SDS011;10127;47.780;9.606;2023-05-29T06:31:59;11.27;;;6.10;;
19929;SDS011;10127;47.780;9.606;2023-05-29T06:34:25;14.52;;;6.00;;
19929;SDS011;10127;47.780;9.606;2023-05-29T06:36:52;11.85;;;5.80;;
19929;SDS011;10127;47.780;9.606;2023-05-29T06:39:17;13.93;;;6.30;;
19929;SDS011;10127;47.780;9.606;2023-05-29T06:41:45;11.50;;;5.72;;
19929;SDS011;10127;47.780;9.606;2023-05-29T06:44:10;11.65;;;6.22;;
19929;SDS011;10127;47.780;9.606;2023-05-29T06:46:36;9.05;;;6.03;;
19929;SDS011;10127;47.780;9.606;2023-05-29T06:49:01;9.95;;;5.97;;
19929;SDS011;10127;47.780;9.606;2023-05-29T06:51:27;11.80;;;5.85;;
19929;SDS011;10127;47.780;9.606;2023-05-29T06:53:53;11.73;;;6.13;;
19929;SDS011;10127;47.780;9.606;2023-05-29T06:56:18;11.35;;;5.53;;
19929;SDS011;10127;47.780;9.606;2023-05-29T06:58:44;14.77;;;5.65;;
19929;SDS011;10127;47.780;9.606;2023-05-29T07:01:10;12.05;;;5.85;;
19929;SDS011;10127;47.780;9.606;2023-05-29T07:03:43;14.35;;;5.90;;
19929;SDS011;10127;47.780;9.606;2023-05-29T07:06:08;9.52;;;5.30;;
19929;SDS011;10127;47.780;9.606;2023-05-29T07:08:35;10.13;;;5.18;;
19929;SDS011;10127;47.780;9.606;2023-05-29T07:11:01;8.93;;;5.15;;
19929;SDS011;10127;47.780;9.606;2023-05-29T07:13:27;8.55;;;5.60;;
19929;SDS011;10127;47.780;9.606;2023-05-29T07:15:53;11.50;;;5.45;;
19929;SDS011;10127;47.780;9.606;2023-05-29T07:18:18;15.27;;;5.85;;
19929;SDS011;10127;47.780;9.606;2023-05-29T07:20:44;11.93;;;5.05;;
19929;SDS011;10127;47.780;9.606;2023-05-29T07:23:09;10.15;;;5.63;;
19929;SDS011;10127;47.780;9.606;2023-05-29T07:25:35;10.85;;;6.05;;
19929;SDS011;10127;47.780;9.606;2023-05-29T07:28:00;13.68;;;5.60;;
19929;SDS011;10127;47.780;9.606;2023-05-29T07:30:26;11.45;;;5.65;;
19929;SDS011;10127;47.780;9.606;2023-05-29T07:32:52;14.27;;;5.32;;
19929;SDS011;10127;47.780;9.606;2023-05-29T07:35:17;11.23;;;5.53;;
19929;SDS011;10127;47.780;9.606;2023-05-29T07:37:43;8.95;;;5.28;;
19929;SDS011;10127;47.780;9.606;2023-05-29T07:40:08;10.93;;;5.78;;
19929;SDS011;10127;47.780;9.606;2023-05-29T07:42:35;14.15;;;6.15;;
19929;SDS011;10127;47.780;9.606;2023-05-29T07:45:01;13.18;;;6.35;;
19929;SDS011;10127;47.780;9.606;2023-05-29T07:47:26;13.73;;;6.18;;
19929;SDS011;10127;47.780;9.606;2023-05-29T07:49:52;12.73;;;5.05;;
19929;SDS011;10127;47.780;9.606;2023-05-29T07:52:23;10.50;;;5.00;;
19929;SDS011;10127;47.780;9.606;2023-05-29T07:54:49;9.75;;;5.50;;
19929;SDS011;10127;47.780;9.606;2023-05-29T07:57:15;11.13;;;6.00;;
19929;SDS011;10127;47.780;9.606;2023-05-29T07:59:48;11.65;;;5.40;;
19929;SDS011;10127;47.780;9.606;2023-05-29T08:02:14;11.18;;;5.63;;
19929;SDS011;10127;47.780;9.606;2023-05-29T08:04:41;11.43;;;5.60;;
19929;SDS011;10127;47.780;9.606;2023-05-29T08:07:07;10.75;;;5.35;;
19929;SDS011;10127;47.780;9.606;2023-05-29T08:09:32;11.27;;;5.47;;
19929;SDS011;10127;47.780;9.606;2023-05-29T08:11:58;8.50;;;5.18;;
19929;SDS011;10127;47.780;9.606;2023-05-29T08:14:26;9.23;;;4.63;;
19929;SDS011;10127;47.780;9.606;2023-05-29T08:16:51;11.60;;;5.38;;
19929;SDS011;10127;47.780;9.606;2023-05-29T08:19:17;13.85;;;5.30;;
19929;SDS011;10127;47.780;9.606;2023-05-29T08:21:42;10.68;;;5.20;;
19929;SDS011;10127;47.780;9.606;2023-05-29T08:24:16;8.40;;;4.60;;
19929;SDS011;10127;47.780;9.606;2023-05-29T08:26:47;10.75;;;5.07;;
19929;SDS011;10127;47.780;9.606;2023-05-29T08:29:20;9.50;;;4.78;;
19929;SDS011;10127;47.780;9.606;2023-05-29T08:31:45;8.15;;;4.40;;
19929;SDS011;10127;47.780;9.606;2023-05-29T08:34:11;11.18;;;5.57;;
19929;SDS011;10127;47.780;9.606;2023-05-29T08:36:37;8.38;;;4.75;;
19929;SDS011;10127;47.780;9.606;2023-05-29T08:39:03;9.60;;;5.18;;
19929;SDS011;10127;47.780;9.606;2023-05-29T08:41:41;11.35;;;5.07;;
19929;SDS011;10127;47.780;9.606;2023-05-29T08:44:21;10.13;;;4.85;;
19929;SDS011;10127;47.780;9.606;2023-05-29T08:46:49;11.98;;;5.28;;
19929;SDS011;10127;47.780;9.606;2023-05-29T08:49:26;8.60;;;4.85;;
19929;SDS011;10127;47.780;9.606;2023-05-29T08:52:04;13.40;;;5.70;;
19929;SDS011;10127;47.780;9.606;2023-05-29T08:54:52;10.40;;;4.57;;
19929;SDS011;10127;47.780;9.606;2023-05-29T08:57:18;10.50;;;4.90;;
19929;SDS011;10127;47.780;9.606;2023-05-29T08:59:45;10.95;;;4.82;;
19929;SDS011;10127;47.780;9.606;2023-05-29T09:02:15;9.38;;;4.57;;
19929;SDS011;10127;47.780;9.606;2023-05-29T09:04:42;12.18;;;4.47;;
19929;SDS011;10127;47.780;9.606;2023-05-29T09:07:13;12.20;;;4.05;;
19929;SDS011;10127;47.780;9.606;2023-05-29T09:09:39;6.70;;;3.63;;
19929;SDS011;10127;47.780;9.606;2023-05-29T09:12:04;11.15;;;4.22;;
19929;SDS011;10127;47.780;9.606;2023-05-29T09:14:34;10.18;;;4.40;;
19929;SDS011;10127;47.780;9.606;2023-05-29T09:17:01;10.35;;;4.85;;
19929;SDS011;10127;47.780;9.606;2023-05-29T09:19:27;8.55;;;4.30;;
19929;SDS011;10127;47.780;9.606;2023-05-29T09:21:59;7.88;;;4.10;;
19929;SDS011;10127;47.780;9.606;2023-05-29T09:24:33;11.68;;;5.13;;
19929;SDS011;10127;47.780;9.606;2023-05-29T09:27:00;11.68;;;4.50;;
19929;SDS011;10127;47.780;9.606;2023-05-29T09:29:47;10.65;;;4.72;;
19929;SDS011;10127;47.780;9.606;2023-05-29T09:32:14;9.25;;;4.75;;
19929;SDS011;10127;47.780;9.606;2023-05-29T09:34:42;11.73;;;4.68;;
19929;SDS011;10127;47.780;9.606;2023-05-29T09:37:08;10.85;;;4.38;;
19929;SDS011;10127;47.780;9.606;2023-05-29T09:42:07;9.98;;;4.50;;
19929;SDS011;10127;47.780;9.606;2023-05-29T09:44:36;13.23;;;4.53;;
19929;SDS011;10127;47.780;9.606;2023-05-29T09:47:02;8.30;;;4.75;;
19929;SDS011;10127;47.780;9.606;2023-05-29T09:49:29;8.70;;;4.22;;
19929;SDS011;10127;47.780;9.606;2023-05-29T09:51:57;7.43;;;4.50;;
19929;SDS011;10127;47.780;9.606;2023-05-29T09:54:24;9.60;;;4.70;;
19929;SDS011;10127;47.780;9.606;2023-05-29T09:56:53;9.05;;;4.65;;
19929;SDS011;10127;47.780;9.606;2023-05-29T09:59:21;9.18;;;4.78;;
19929;SDS011;10127;47.780;9.606;2023-05-29T10:01:49;9.60;;;4.82;;
19929;SDS011;10127;47.780;9.606;2023-05-29T10:04:32;18.30;;;4.70;;
19929;SDS011;10127;47.780;9.606;2023-05-29T10:07:00;10.68;;;4.68;;
19929;SDS011;10127;47.780;9.606;2023-05-29T10:09:31;9.70;;;4.80;;
19929;SDS011;10127;47.780;9.606;2023-05-29T10:12:00;8.82;;;4.65;;
19929;SDS011;10127;47.780;9.606;2023-05-29T10:14:29;9.02;;;5.03;;
19929;SDS011;10127;47.780;9.606;2023-05-29T10:16:58;7.35;;;4.13;;
19929;SDS011;10127;47.780;9.606;2023-05-29T10:19:31;9.85;;;3.83;;
19929;SDS011;10127;47.780;9.606;2023-05-29T10:21:57;12.05;;;4.70;;
19929;SDS011;10127;47.780;9.606;2023-05-29T10:24:26;9.63;;;4.32;;
19929;SDS011;10127;47.780;9.606;2023-05-29T10:26:53;19.05;;;4.82;;
19929;SDS011;10127;47.780;9.606;2023-05-29T10:29:42;8.10;;;4.40;;
19929;SDS011;10127;47.780;9.606;2023-05-29T10:32:20;10.77;;;3.88;;
19929;SDS011;10127;47.780;9.606;2023-05-29T10:34:58;9.60;;;4.78;;
19929;SDS011;10127;47.780;9.606;2023-05-29T10:40:08;9.90;;;4.28;;
19929;SDS011;10127;47.780;9.606;2023-05-29T10:48:40;5.93;;;3.85;;
19929;SDS011;10127;47.780;9.606;2023-05-29T10:50:53;7.68;;;3.90;;
19929;SDS011;10127;47.780;9.606;2023-05-29T10:53:24;8.73;;;4.22;;
19929;SDS011;10127;47.780;9.606;2023-05-29T10:55:52;10.18;;;4.30;;
19929;SDS011;10127;47.780;9.606;2023-05-29T10:58:19;9.45;;;4.72;;
19929;SDS011;10127;47.780;9.606;2023-05-29T11:00:46;8.35;;;4.22;;
19929;SDS011;10127;47.780;9.606;2023-05-29T11:03:17;7.00;;;4.10;;
19929;SDS011;10127;47.780;9.606;2023-05-29T11:11:12;8.90;;;4.28;;
19929;SDS011;10127;47.780;9.606;2023-05-29T11:13:39;8.18;;;4.13;;
19929;SDS011;10127;47.780;9.606;2023-05-29T11:18:53;6.65;;;4.03;;
19929;SDS011;10127;47.780;9.606;2023-05-29T11:24:24;6.05;;;4.05;;
19929;SDS011;10127;47.780;9.606;2023-05-29T11:26:51;8.65;;;4.55;;
19929;SDS011;10127;47.780;9.606;2023-05-29T11:29:20;5.70;;;3.45;;
19929;SDS011;10127;47.780;9.606;2023-05-29T11:31:47;10.70;;;4.07;;
19929;SDS011;10127;47.780;9.606;2023-05-29T11:34:20;6.40;;;4.25;;
19929;SDS011;10127;47.780;9.606;2023-05-29T11:36:47;7.03;;;3.67;;
19929;SDS011;10127;47.780;9.606;2023-05-29T11:39:14;7.43;;;4.15;;
19929;SDS011;10127;47.780;9.606;2023-05-29T11:41:40;7.28;;;4.30;;
19929;SDS011;10127;47.780;9.606;2023-05-29T11:44:05;6.38;;;3.95;;
19929;SDS011;10127;47.780;9.606;2023-05-29T11:46:31;6.60;;;4.20;;
19929;SDS011;10127;47.780;9.606;2023-05-29T11:49:00;5.53;;;3.38;;
19929;SDS011;10127;47.780;9.606;2023-05-29T11:51:26;8.43;;;4.22;;
19929;SDS011;10127;47.780;9.606;2023-05-29T11:53:52;7.18;;;3.78;;
19929;SDS011;10127;47.780;9.606;2023-05-29T11:56:23;6.07;;;4.22;;
19929;SDS011;10127;47.780;9.606;2023-05-29T11:58:50;8.48;;;4.15;;
19929;SDS011;10127;47.780;9.606;2023-05-29T12:01:16;6.07;;;3.55;;
19929;SDS011;10127;47.780;9.606;2023-05-29T12:03:44;9.02;;;3.72;;
19929;SDS011;10127;47.780;9.606;2023-05-29T12:06:09;10.75;;;3.60;;
19929;SDS011;10127;47.780;9.606;2023-05-29T12:08:35;8.77;;;3.45;;
19929;SDS011;10127;47.780;9.606;2023-05-29T12:11:04;6.32;;;3.78;;
19929;SDS011;10127;47.780;9.606;2023-05-29T12:13:30;7.60;;;3.67;;
19929;SDS011;10127;47.780;9.606;2023-05-29T12:15:57;8.73;;;3.88;;
19929;SDS011;10127;47.780;9.606;2023-05-29T12:18:25;7.38;;;3.80;;
19929;SDS011;10127;47.780;9.606;2023-05-29T12:20:56;7.05;;;3.80;;
19929;SDS011;10127;47.780;9.606;2023-05-29T12:23:25;7.80;;;3.40;;
19929;SDS011;10127;47.780;9.606;2023-05-29T12:25:52;5.68;;;3.17;;
19929;SDS011;10127;47.780;9.606;2023-05-29T12:28:19;5.85;;;3.13;;
19929;SDS011;10127;47.780;9.606;2023-05-29T12:30:46;9.15;;;3.47;;
19929;SDS011;10127;47.780;9.606;2023-05-29T12:33:24;5.40;;;3.40;;
19929;SDS011;10127;47.780;9.606;2023-05-29T12:35:53;14.32;;;4.57;;
19929;SDS011;10127;47.780;9.606;2023-05-29T12:38:19;7.13;;;3.67;;
19929;SDS011;10127;47.780;9.606;2023-05-29T12:40:47;6.45;;;3.15;;
19929;SDS011;10127;47.780;9.606;2023-05-29T12:43:13;7.90;;;3.20;;
19929;SDS011;10127;47.780;9.606;2023-05-29T12:45:39;6.93;;;3.35;;
19929;SDS011;10127;47.780;9.606;2023-05-29T12:48:05;7.43;;;3.70;;
19929;SDS011;10127;47.780;9.606;2023-05-29T12:50:36;6.80;;;3.10;;
19929;SDS011;10127;47.780;9.606;2023-05-29T12:53:07;6.18;;;3.78;;
19929;SDS011;10127;47.780;9.606;2023-05-29T12:55:34;10.88;;;3.30;;
19929;SDS011;10127;47.780;9.606;2023-05-29T12:58:02;7.93;;;3.85;;
19929;SDS011;10127;47.780;9.606;2023-05-29T13:00:28;6.15;;;3.53;;
19929;SDS011;10127;47.780;9.606;2023-05-29T13:02:55;16.85;;;3.67;;
19929;SDS011;10127;47.780;9.606;2023-05-29T13:05:21;6.63;;;3.40;;
19929;SDS011;10127;47.780;9.606;2023-05-29T13:07:48;6.88;;;3.58;;
19929;SDS011;10127;47.780;9.606;2023-05-29T13:10:15;6.88;;;3.25;;
19929;SDS011;10127;47.780;9.606;2023-05-29T13:12:41;7.55;;;3.65;;
19929;SDS011;10127;47.780;9.606;2023-05-29T13:15:09;6.53;;;3.53;;
19929;SDS011;10127;47.780;9.606;2023-05-29T13:17:36;6.22;;;2.92;;
19929;SDS011;10127;47.780;9.606;2023-05-29T13:20:02;5.50;;;3.63;;
19929;SDS011;10127;47.780;9.606;2023-05-29T13:22:32;5.72;;;3.20;;
19929;SDS011;10127;47.780;9.606;2023-05-29T13:24:58;7.28;;;3.40;;
19929;SDS011;10127;47.780;9.606;2023-05-29T13:27:24;4.60;;;2.80;;
19929;SDS011;10127;47.780;9.606;2023-05-29T13:29:51;10.82;;;2.75;;
19929;SDS011;10127;47.780;9.606;2023-05-29T13:32:17;4.30;;;2.72;;
19929;SDS011;10127;47.780;9.606;2023-05-29T13:34:42;5.78;;;3.33;;
19929;SDS011;10127;47.780;9.606;2023-05-29T13:37:08;8.20;;;3.25;;
19929;SDS011;10127;47.780;9.606;2023-05-29T13:39:34;4.80;;;2.72;;
19929;SDS011;10127;47.780;9.606;2023-05-29T13:41:59;6.07;;;3.35;;
19929;SDS011;10127;47.780;9.606;2023-05-29T13:44:25;5.28;;;3.47;;
19929;SDS011;10127;47.780;9.606;2023-05-29T13:46:51;5.97;;;3.47;;
19929;SDS011;10127;47.780;9.606;2023-05-29T13:49:16;5.35;;;3.22;;
19929;SDS011;10127;47.780;9.606;2023-05-29T13:51:42;4.57;;;2.95;;
19929;SDS011;10127;47.780;9.606;2023-05-29T13:54:08;6.88;;;3.30;;
19929;SDS011;10127;47.780;9.606;2023-05-29T13:56:33;4.55;;;3.40;;
19929;SDS011;10127;47.780;9.606;2023-05-29T13:58:59;7.40;;;3.35;;
19929;SDS011;10127;47.780;9.606;2023-05-29T14:01:29;5.20;;;3.03;;
19929;SDS011;10127;47.780;9.606;2023-05-29T14:03:55;6.53;;;3.38;;
19929;SDS011;10127;47.780;9.606;2023-05-29T14:06:21;5.43;;;2.90;;
19929;SDS011;10127;47.780;9.606;2023-05-29T14:08:46;4.03;;;2.70;;
19929;SDS011;10127;47.780;9.606;2023-05-29T14:11:12;7.43;;;3.88;;
19929;SDS011;10127;47.780;9.606;2023-05-29T14:13:38;6.18;;;3.15;;
19929;SDS011;10127;47.780;9.606;2023-05-29T14:16:03;5.07;;;3.13;;
19929;SDS011;10127;47.780;9.606;2023-05-29T14:18:29;5.15;;;2.95;;
19929;SDS011;10127;47.780;9.606;2023-05-29T14:20:54;4.43;;;2.70;;
19929;SDS011;10127;47.780;9.606;2023-05-29T14:23:20;4.30;;;3.03;;
19929;SDS011;10127;47.780;9.606;2023-05-29T14:25:46;5.95;;;2.85;;
19929;SDS011;10127;47.780;9.606;2023-05-29T14:28:11;6.22;;;2.97;;
19929;SDS011;10127;47.780;9.606;2023-05-29T14:30:37;5.03;;;2.65;;
19929;SDS011;10127;47.780;9.606;2023-05-29T14:33:03;6.03;;;2.90;;
19929;SDS011;10127;47.780;9.606;2023-05-29T14:35:29;5.60;;;3.00;;
19929;SDS011;10127;47.780;9.606;2023-05-29T14:37:55;5.85;;;2.90;;
19929;SDS011;10127;47.780;9.606;2023-05-29T14:40:21;5.25;;;3.47;;
19929;SDS011;10127;47.780;9.606;2023-05-29T14:42:47;4.82;;;2.72;;
19929;SDS011;10127;47.780;9.606;2023-05-29T14:45:13;4.20;;;2.60;;
19929;SDS011;10127;47.780;9.606;2023-05-29T14:47:39;5.07;;;2.47;;
19929;SDS011;10127;47.780;9.606;2023-05-29T14:50:06;6.63;;;2.97;;
19929;SDS011;10127;47.780;9.606;2023-05-29T14:52:32;6.38;;;2.80;;
19929;SDS011;10127;47.780;9.606;2023-05-29T14:54:58;4.53;;;2.92;;
19929;SDS011;10127;47.780;9.606;2023-05-29T14:57:26;4.85;;;2.92;;
19929;SDS011;10127;47.780;9.606;2023-05-29T14:59:52;4.22;;;2.65;;
19929;SDS011;10127;47.780;9.606;2023-05-29T15:02:17;4.85;;;2.30;;
19929;SDS011;10127;47.780;9.606;2023-05-29T15:04:43;6.03;;;3.03;;
19929;SDS011;10127;47.780;9.606;2023-05-29T15:07:08;8.18;;;2.88;;
19929;SDS011;10127;47.780;9.606;2023-05-29T15:09:34;3.35;;;2.38;;
19929;SDS011;10127;47.780;9.606;2023-05-29T15:11:59;5.88;;;3.00;;
19929;SDS011;10127;47.780;9.606;2023-05-29T15:14:26;5.47;;;2.80;;
19929;SDS011;10127;47.780;9.606;2023-05-29T15:16:51;6.38;;;3.15;;
19929;SDS011;10127;47.780;9.606;2023-05-29T15:19:17;3.88;;;2.17;;
19929;SDS011;10127;47.780;9.606;2023-05-29T15:21:42;6.35;;;3.03;;
19929;SDS011;10127;47.780;9.606;2023-05-29T15:24:08;7.93;;;2.70;;
19929;SDS011;10127;47.780;9.606;2023-05-29T15:26:33;5.15;;;2.70;;
19929;SDS011;10127;47.780;9.606;2023-05-29T15:29:00;7.20;;;2.97;;
19929;SDS011;10127;47.780;9.606;2023-05-29T15:31:25;6.22;;;2.63;;
19929;SDS011;10127;47.780;9.606;2023-05-29T15:33:51;5.30;;;3.00;;
19929;SDS011;10127;47.780;9.606;2023-05-29T15:36:17;7.13;;;3.03;;
19929;SDS011;10127;47.780;9.606;2023-05-29T15:38:44;4.53;;;2.92;;